createdAt,value
2022-11-01T00:02:02.772Z,100551.94
2022-11-01T00:04:31.138Z,100573.00
2022-11-01T00:06:59.465Z,100259.91
2022-11-01T00:09:27.798Z,100516.00
2022-11-01T00:11:56.218Z,100551.56
2022-11-01T00:14:24.486Z,100553.25
2022-11-01T00:16:53.101Z,100514.44
2022-11-01T00:19:22.804Z,100531.88
2022-11-01T00:21:51.117Z,100536.13
2022-11-01T00:24:19.398Z,100509.97
2022-11-01T00:29:20.952Z,100528.28
2022-11-01T00:31:49.434Z,100535.16
2022-11-01T00:34:18.075Z,100536.56
2022-11-01T00:36:47.800Z,100514.00
2022-11-01T00:39:16.881Z,100522.28
2022-11-01T00:41:45.198Z,100515.28
2022-11-01T00:44:13.700Z,100526.34
2022-11-01T00:46:42.059Z,100497.75
2022-11-01T00:49:10.335Z,100533.50
2022-11-01T00:51:38.586Z,100516.31
2022-11-01T00:54:08.552Z,100526.94
2022-11-01T00:56:36.879Z,100505.19
2022-11-01T00:59:05.752Z,100517.69
2022-11-01T01:01:35.949Z,100544.41
2022-11-01T01:04:04.621Z,100526.78
2022-11-01T01:06:32.979Z,100516.84
2022-11-01T01:09:02.352Z,100504.63
2022-11-01T01:11:31.983Z,100471.25
2022-11-01T01:14:01.709Z,100504.09
2022-11-01T01:16:30.192Z,100503.25
2022-11-01T01:18:59.965Z,100480.72
2022-11-01T01:21:28.253Z,100495.66
2022-11-01T01:23:56.631Z,100479.19
2022-11-01T01:26:24.936Z,100499.16
2022-11-01T01:28:56.407Z,100500.94
2022-11-01T01:31:24.738Z,100505.16
2022-11-01T01:33:53.080Z,100486.09
2022-11-01T01:36:21.413Z,100468.47
2022-11-01T01:38:52.866Z,100529.78
2022-11-01T01:41:53.239Z,100262.53
2022-11-01T01:45:16.745Z,100509.31
2022-11-01T01:47:53.176Z,100515.47
2022-11-01T01:50:28.403Z,100513.53
2022-11-01T01:53:03.542Z,100505.69
2022-11-01T01:55:38.354Z,100495.38
2022-11-01T01:58:08.533Z,100482.53
2022-11-01T02:00:36.930Z,100505.81
2022-11-01T02:03:08.451Z,100489.34
2022-11-01T02:05:45.967Z,100467.28
2022-11-01T02:08:15.904Z,100481.16
2022-11-01T02:10:44.671Z,100523.34
2022-11-01T02:13:15.019Z,100502.81
2022-11-01T02:15:59.393Z,100512.84
2022-11-01T02:18:37.257Z,100500.34
2022-11-01T02:21:40.597Z,100516.06
2022-11-01T02:24:52.137Z,100490.25
2022-11-01T02:27:28.493Z,100537.06
2022-11-01T02:30:13.384Z,100523.00
2022-11-01T02:33:06.171Z,100544.56
2022-11-01T02:35:50.672Z,100538.09
2022-11-01T02:38:27.845Z,100506.97
2022-11-01T02:41:04.897Z,100541.56
2022-11-01T02:43:43.618Z,100556.63
2022-11-01T02:46:30.392Z,100551.84
2022-11-01T02:49:00.421Z,100564.69
2022-11-01T02:51:31.294Z,100564.50
2022-11-01T02:54:02.921Z,100539.00
2022-11-01T02:56:32.324Z,100557.34
2022-11-01T02:59:01.631Z,100574.00
2022-11-01T03:01:34.403Z,100574.00
2022-11-01T03:04:04.800Z,100361.47
2022-11-01T03:06:38.960Z,100582.56
2022-11-01T03:09:11.523Z,100552.56
2022-11-01T03:11:52.274Z,100579.88
2022-11-01T03:14:25.767Z,100570.66
2022-11-01T03:17:01.216Z,100587.81
2022-11-01T03:19:45.599Z,100607.50
2022-11-01T03:22:18.460Z,100603.84
2022-11-01T03:24:51.561Z,100568.91
2022-11-01T03:27:27.537Z,100575.28
2022-11-01T03:30:02.939Z,100615.13
2022-11-01T03:32:37.788Z,100603.69
2022-11-01T03:35:12.222Z,100618.09
2022-11-01T03:37:43.245Z,100635.00
2022-11-01T03:40:15.314Z,100635.72
2022-11-01T03:42:49.728Z,100643.16
2022-11-01T03:47:57.497Z,100626.78
2022-11-01T03:50:29.741Z,100658.94
2022-11-01T03:52:58.477Z,100614.03
2022-11-01T03:55:27.353Z,100626.56
2022-11-01T03:57:57.982Z,100658.13
2022-11-01T04:00:29.345Z,100668.34
2022-11-01T04:02:59.500Z,100707.31
2022-11-01T04:05:31.386Z,100678.03
2022-11-01T04:07:59.814Z,100672.72
2022-11-01T04:10:30.125Z,100695.34
2022-11-01T04:12:59.283Z,100690.59
2022-11-01T04:15:46.591Z,100679.75
2022-11-01T04:18:35.114Z,100690.44
2022-11-01T04:21:07.840Z,100687.22
2022-11-01T04:23:36.883Z,100694.91
2022-11-01T04:26:07.436Z,100647.28
2022-11-01T04:28:35.898Z,100706.19
2022-11-01T04:31:04.348Z,100728.34
2022-11-01T04:33:32.734Z,100690.50
2022-11-01T04:36:08.039Z,100687.28
2022-11-01T04:38:36.353Z,100674.50
2022-11-01T04:41:04.625Z,100711.19
2022-11-01T04:43:32.911Z,100722.63
2022-11-01T04:46:01.185Z,100762.47
2022-11-01T04:48:29.891Z,100695.72
2022-11-01T04:50:58.178Z,100725.19
2022-11-01T04:53:27.912Z,100697.59
2022-11-01T04:55:56.388Z,100720.69
2022-11-01T04:58:24.886Z,100714.66
2022-11-01T05:00:53.162Z,100731.47
2022-11-01T05:03:21.541Z,100715.69
2022-11-01T05:05:49.838Z,100691.84
2022-11-01T05:08:18.112Z,100732.84
2022-11-01T05:10:47.663Z,100700.97
2022-11-01T05:13:15.957Z,100718.63
2022-11-01T05:16:06.246Z,100722.06
2022-11-01T05:18:32.621Z,100670.47
2022-11-01T05:21:00.915Z,100723.94
2022-11-01T05:23:29.220Z,100708.34
2022-11-01T05:25:59.738Z,100710.53
2022-11-01T05:28:28.088Z,100711.56
2022-11-01T05:30:56.357Z,100723.25
2022-11-01T05:33:24.704Z,100741.03
2022-11-01T05:35:53.073Z,100713.97
2022-11-01T05:38:24.292Z,100729.66
2022-11-01T05:40:52.573Z,100718.31
2022-11-01T05:43:22.202Z,100742.22
2022-11-01T05:45:51.299Z,100760.91
2022-11-01T05:48:19.732Z,100718.22
2022-11-01T05:50:48.544Z,100752.81
2022-11-01T05:53:16.978Z,100690.31
2022-11-01T05:55:45.354Z,100750.97
2022-11-01T05:58:13.763Z,100718.31
2022-11-01T06:00:43.522Z,100724.53
2022-11-01T06:03:11.884Z,100737.03
2022-11-01T06:05:40.598Z,100736.88
2022-11-01T06:08:09.046Z,100766.13
2022-11-01T06:10:37.258Z,100720.59
2022-11-01T06:13:05.939Z,100677.19
2022-11-01T06:15:37.227Z,100776.78
2022-11-01T06:18:09.775Z,100789.97
2022-11-01T06:20:38.754Z,100875.16
2022-11-01T06:23:11.953Z,100808.53
2022-11-01T06:25:40.368Z,100778.66
2022-11-01T06:28:08.705Z,100769.88
2022-11-01T06:30:38.930Z,100796.25
2022-11-01T06:33:09.590Z,100838.66
2022-11-01T06:35:38.348Z,100800.06
2022-11-01T06:38:08.531Z,100751.56
2022-11-01T06:40:37.385Z,100806.19
2022-11-01T06:43:07.365Z,100821.22
2022-11-01T06:45:35.757Z,100850.56
2022-11-01T06:48:04.314Z,100793.28
2022-11-01T06:50:34.777Z,100756.44
2022-11-01T06:53:05.975Z,100733.69
2022-11-01T06:55:34.299Z,100832.94
2022-11-01T06:58:04.515Z,100798.59
2022-11-01T07:00:33.764Z,100737.63
2022-11-01T07:03:05.561Z,100839.72
2022-11-01T07:05:38.530Z,100801.25
2022-11-01T07:08:09.056Z,100883.47
2022-11-01T07:10:38.639Z,100849.91
2022-11-01T07:13:08.874Z,100897.50
2022-11-01T07:15:37.429Z,100898.41
2022-11-01T07:18:08.735Z,100891.16
2022-11-01T07:20:42.469Z,100882.75
2022-11-01T07:23:16.031Z,100931.25
2022-11-01T07:25:45.004Z,100878.72
2022-11-01T07:28:13.753Z,100936.44
2022-11-01T07:30:42.165Z,100905.53
2022-11-01T07:33:10.718Z,100932.69
2022-11-01T07:35:40.453Z,100976.09
2022-11-01T07:38:13.229Z,100901.91
2022-11-01T07:40:42.749Z,100958.94
2022-11-01T07:43:11.302Z,100958.84
2022-11-01T07:45:39.674Z,100968.31
2022-11-01T07:48:12.035Z,100955.44
2022-11-01T07:50:46.017Z,100990.59
2022-11-01T07:53:16.757Z,101041.63
2022-11-01T07:55:45.818Z,101011.44
2022-11-01T07:58:16.095Z,100963.34
2022-11-01T08:00:45.868Z,100993.34
2022-11-01T08:03:16.624Z,100950.75
2022-11-01T08:05:47.103Z,100988.13
2022-11-01T08:08:16.676Z,100991.97
2022-11-01T08:10:45.239Z,101009.38
2022-11-01T08:13:18.354Z,100997.28
2022-11-01T08:15:47.230Z,101043.63
2022-11-01T08:18:16.210Z,101020.31
2022-11-01T08:20:45.958Z,101005.31
2022-11-01T08:23:14.438Z,101056.81
2022-11-01T08:25:44.748Z,101025.66
2022-11-01T08:28:15.905Z,101013.81
2022-11-01T08:30:46.561Z,101061.84
2022-11-01T08:33:15.351Z,101044.97
2022-11-01T08:35:50.400Z,101058.03
2022-11-01T08:38:19.451Z,101065.13
2022-11-01T08:40:48.015Z,101070.22
2022-11-01T08:43:16.529Z,101096.09
2022-11-01T08:45:45.098Z,101049.66
2022-11-01T08:48:13.823Z,101018.84
2022-11-01T08:50:42.277Z,101058.28
2022-11-01T08:53:14.293Z,101067.44
2022-11-01T08:55:43.287Z,101082.28
2022-11-01T08:58:12.141Z,101079.75
2022-11-01T09:00:40.499Z,101121.97
2022-11-01T09:03:08.826Z,101092.53
2022-11-01T09:05:37.349Z,101077.13
2022-11-01T09:08:06.375Z,101083.75
2022-11-01T09:10:36.375Z,101060.56
2022-11-01T09:13:07.022Z,101110.09
2022-11-01T09:15:35.689Z,101134.63
2022-11-01T09:18:07.537Z,101148.78
2022-11-01T09:20:37.898Z,101107.06
2022-11-01T09:23:06.459Z,101111.38
2022-11-01T09:25:36.973Z,101132.34
2022-11-01T09:28:05.610Z,101132.19
2022-11-01T09:30:33.887Z,101129.53
2022-11-01T09:33:06.021Z,101131.81
2022-11-01T09:35:34.882Z,101144.59
2022-11-01T09:38:04.519Z,101137.94
2022-11-01T09:40:45.455Z,101142.66
2022-11-01T09:43:21.966Z,101122.38
2022-11-01T09:45:52.710Z,101131.00
2022-11-01T09:48:21.173Z,101150.63
2022-11-01T09:50:49.504Z,101143.38
2022-11-01T09:53:23.396Z,101144.72
2022-11-01T09:56:02.025Z,101159.94
2022-11-01T09:58:43.213Z,101117.13
2022-11-01T10:01:34.918Z,101117.69
2022-11-01T10:04:23.628Z,101168.78
2022-11-01T10:07:00.445Z,101184.50
2022-11-01T10:09:39.562Z,101168.91
2022-11-01T10:12:26.145Z,101181.78
2022-11-01T10:15:10.703Z,101176.66
2022-11-01T10:17:52.335Z,101208.50
2022-11-01T10:20:24.632Z,101208.75
2022-11-01T10:22:52.987Z,101098.84
2022-11-01T10:25:26.555Z,101206.59
2022-11-01T10:28:06.921Z,101219.78
2022-11-01T10:30:41.783Z,101131.19
2022-11-01T10:33:29.114Z,101255.31
2022-11-01T10:36:02.446Z,101186.28
2022-11-01T10:39:04.578Z,101214.56
2022-11-01T10:41:37.493Z,101204.78
2022-11-01T10:44:15.289Z,101195.03
2022-11-01T10:46:47.191Z,101183.25
2022-11-01T10:49:24.570Z,101195.22
2022-11-01T10:51:57.798Z,101214.56
2022-11-01T10:54:30.171Z,101234.75
2022-11-01T10:57:02.726Z,101182.78
2022-11-01T10:59:40.081Z,101225.97
2022-11-01T11:02:17.826Z,101221.00
2022-11-01T11:04:46.553Z,101210.28
2022-11-01T11:07:18.600Z,101143.50
2022-11-01T11:09:51.253Z,101228.28
2022-11-01T11:12:22.856Z,101212.31
2022-11-01T11:14:57.903Z,101211.47
2022-11-01T11:17:31.183Z,101196.13
2022-11-01T11:20:04.903Z,101210.97
2022-11-01T11:22:39.732Z,101223.75
2022-11-01T11:25:15.579Z,101202.31
2022-11-01T11:27:48.526Z,101214.81
2022-11-01T11:30:29.857Z,101220.13
2022-11-01T11:33:02.740Z,101195.16
2022-11-01T11:35:33.678Z,101234.09
2022-11-01T11:38:05.028Z,101165.63
2022-11-01T11:40:45.626Z,101230.00
2022-11-01T11:43:23.958Z,101209.94
2022-11-01T11:46:08.855Z,101239.22
2022-11-01T11:48:48.444Z,101186.00
2022-11-01T11:51:17.781Z,101203.84
2022-11-01T11:54:10.451Z,101240.34
2022-11-01T11:56:38.955Z,101210.16
2022-11-01T11:59:16.905Z,101240.72
2022-11-01T12:01:48.532Z,101167.38
2022-11-01T12:04:19.073Z,101200.25
2022-11-01T12:06:49.901Z,101185.84
2022-11-01T12:09:42.670Z,101172.97
2022-11-01T12:12:20.059Z,101173.06
2022-11-01T12:14:48.514Z,101195.03
2022-11-01T12:17:41.399Z,101163.28
2022-11-01T12:20:18.237Z,101198.22
2022-11-01T12:22:51.760Z,101226.28
2022-11-01T12:25:24.419Z,101176.78
2022-11-01T12:28:01.248Z,101207.25
2022-11-01T12:30:34.627Z,101201.34
2022-11-01T12:35:47.485Z,101180.03
2022-11-01T12:38:40.911Z,101179.09
2022-11-01T12:41:25.707Z,101173.13
2022-11-01T12:44:05.249Z,101148.47
2022-11-01T12:46:40.635Z,101195.00
2022-11-01T12:49:20.320Z,101173.78
2022-11-01T12:51:54.548Z,101113.41
2022-11-01T12:54:29.244Z,101179.94
2022-11-01T12:56:58.423Z,101207.31
2022-11-01T12:59:37.123Z,101195.94
2022-11-01T13:02:27.831Z,101036.97
2022-11-01T13:05:04.250Z,101187.56
2022-11-01T13:07:47.824Z,101177.56
2022-11-01T13:10:27.511Z,101196.41
2022-11-01T13:13:05.708Z,101202.44
2022-11-01T13:15:47.274Z,101172.72
2022-11-01T13:18:22.924Z,101208.19
2022-11-01T13:21:00.899Z,101217.25
2022-11-01T13:23:37.122Z,101185.91
2022-11-01T13:26:14.173Z,101152.09
2022-11-01T13:28:58.427Z,101195.34
2022-11-01T13:31:51.393Z,101145.38
2022-11-01T13:34:34.168Z,101184.09
2022-11-01T13:37:12.063Z,101185.00
2022-11-01T13:39:55.296Z,101169.56
2022-11-01T13:42:32.624Z,101137.78
2022-11-01T13:45:23.734Z,101181.69
2022-11-01T13:47:58.039Z,101191.91
2022-11-01T13:50:56.501Z,101156.19
2022-11-01T13:53:35.972Z,101169.56
2022-11-01T13:56:09.644Z,101161.09
2022-11-01T13:58:38.555Z,101193.13
2022-11-01T14:01:32.108Z,101174.69
2022-11-01T14:04:55.907Z,101174.16
2022-11-01T14:07:24.428Z,101169.28
2022-11-01T14:09:55.288Z,101164.00
2022-11-01T14:12:43.327Z,101195.28
2022-11-01T14:15:25.026Z,101185.69
2022-11-01T14:18:04.523Z,101036.31
2022-11-01T14:20:53.430Z,101169.75
2022-11-01T14:24:02.536Z,101188.44
2022-11-01T14:27:10.377Z,101145.25
2022-11-01T14:29:38.860Z,101155.06
2022-11-01T14:32:09.324Z,101140.25
2022-11-01T14:34:41.641Z,101176.47
2022-11-01T14:37:40.873Z,101176.94
2022-11-01T14:40:30.560Z,101115.03
2022-11-01T14:43:06.272Z,101163.69
2022-11-01T14:45:38.437Z,101133.63
2022-11-01T14:48:17.005Z,101118.78
2022-11-01T14:50:56.978Z,101134.59
2022-11-01T14:53:30.301Z,101146.41
2022-11-01T14:56:15.465Z,101156.69
2022-11-01T14:58:45.700Z,101188.53
2022-11-01T15:01:17.375Z,101152.91
2022-11-01T15:03:58.109Z,101161.94
2022-11-01T15:06:29.007Z,101169.97
2022-11-01T15:08:59.441Z,101103.19
2022-11-01T15:11:29.438Z,101156.00
2022-11-01T15:14:04.756Z,101160.38
2022-11-01T15:16:36.654Z,101128.91
2022-11-01T15:19:10.880Z,101119.53
2022-11-01T15:21:46.943Z,101132.09
2022-11-01T15:24:25.767Z,101107.88
2022-11-01T15:26:54.864Z,101140.56
2022-11-01T15:29:25.990Z,101116.78
2022-11-01T15:32:00.636Z,101115.84
2022-11-01T15:34:32.121Z,101147.56
2022-11-01T15:37:11.609Z,101167.25
2022-11-01T15:39:42.752Z,101114.44
2022-11-01T15:42:20.288Z,101131.03
2022-11-01T15:44:50.082Z,101162.16
2022-11-01T15:47:22.639Z,101162.38
2022-11-01T15:49:56.580Z,101141.19
2022-11-01T15:52:30.293Z,101117.06
2022-11-01T15:55:05.849Z,101141.81
2022-11-01T15:57:39.429Z,101179.81
2022-11-01T16:00:18.665Z,101183.97
2022-11-01T16:02:52.628Z,101177.09
2022-11-01T16:05:29.952Z,101143.97
2022-11-01T16:07:59.007Z,101145.94
2022-11-01T16:10:30.069Z,101131.91
2022-11-01T16:13:00.463Z,101147.84
2022-11-01T16:15:33.048Z,101144.22
2022-11-01T16:18:03.443Z,101140.66
2022-11-01T16:20:37.136Z,101106.31
2022-11-01T16:23:07.158Z,101143.56
2022-11-01T16:25:38.143Z,101116.19
2022-11-01T16:28:33.010Z,101053.78
2022-11-01T16:31:04.252Z,101147.03
2022-11-01T16:33:45.329Z,101136.22
2022-11-01T16:36:38.093Z,101151.41
2022-11-01T16:39:29.379Z,101120.59
2022-11-01T16:41:59.086Z,101125.19
2022-11-01T16:44:27.896Z,101159.56
2022-11-01T16:46:57.717Z,101157.91
2022-11-01T16:49:29.075Z,101183.84
2022-11-01T16:51:57.518Z,101149.59
2022-11-01T16:54:26.261Z,101192.69
2022-11-01T16:56:58.390Z,101147.50
2022-11-01T16:59:39.007Z,101043.63
2022-11-01T17:02:19.257Z,101177.09
2022-11-01T17:04:51.620Z,101102.84
2022-11-01T17:07:20.291Z,101148.78
2022-11-01T17:09:48.678Z,101089.69
2022-11-01T17:12:17.223Z,101100.72
2022-11-01T17:14:46.494Z,100939.44
2022-11-01T17:17:19.681Z,101128.06
2022-11-01T17:19:54.540Z,101151.56
2022-11-01T17:22:37.639Z,101160.56
2022-11-01T17:25:08.053Z,101135.25
2022-11-01T17:27:36.491Z,101175.13
2022-11-01T17:30:05.738Z,101157.06
2022-11-01T17:32:35.585Z,101101.06
2022-11-01T17:35:04.042Z,101090.75
2022-11-01T17:37:36.715Z,101164.13
2022-11-01T17:40:15.876Z,101168.78
2022-11-01T17:42:44.385Z,101123.06
2022-11-01T17:45:13.425Z,101147.91
2022-11-01T17:47:43.140Z,101148.16
2022-11-01T17:50:15.246Z,101130.16
2022-11-01T17:52:44.405Z,100999.59
2022-11-01T17:55:13.810Z,101165.47
2022-11-01T17:57:43.524Z,101161.06
2022-11-01T18:00:13.316Z,101166.25
2022-11-01T18:02:44.969Z,101161.50
2022-11-01T18:05:14.297Z,101109.38
2022-11-01T18:07:49.559Z,101176.16
2022-11-01T18:10:20.673Z,101161.97
2022-11-01T18:13:10.449Z,101147.41
2022-11-01T18:15:45.363Z,101164.28
2022-11-01T18:18:30.375Z,101151.25
2022-11-01T18:21:13.476Z,101174.31
2022-11-01T18:23:46.256Z,101184.34
2022-11-01T18:26:21.479Z,101054.22
2022-11-01T18:28:50.139Z,101118.97
2022-11-01T18:31:25.181Z,101198.75
2022-11-01T18:34:01.642Z,101192.00
2022-11-01T18:36:35.168Z,101195.59
2022-11-01T18:39:16.346Z,101172.53
2022-11-01T18:41:47.123Z,101213.25
2022-11-01T18:44:15.891Z,101195.50
2022-11-01T18:46:53.323Z,101193.63
2022-11-01T18:49:27.990Z,101221.97
2022-11-01T18:51:57.148Z,101160.44
2022-11-01T18:54:28.370Z,101211.31
2022-11-01T18:56:59.122Z,101240.88
2022-11-01T18:59:30.210Z,101206.94
2022-11-01T19:02:01.795Z,101206.09
2022-11-01T19:04:35.565Z,101207.78
2022-11-01T19:07:12.469Z,101194.72
2022-11-01T19:09:43.900Z,101187.97
2022-11-01T19:12:16.328Z,101165.25
2022-11-01T19:14:45.217Z,101232.56
2022-11-01T19:17:20.453Z,101211.47
2022-11-01T19:19:51.258Z,101240.78
2022-11-01T19:22:38.145Z,101194.78
2022-11-01T19:25:17.844Z,101220.72
2022-11-01T19:27:46.306Z,101185.56
2022-11-01T19:30:22.236Z,101203.25
2022-11-01T19:32:51.222Z,101112.84
2022-11-01T19:35:22.614Z,101196.03
2022-11-01T19:37:52.010Z,101188.00
2022-11-01T19:40:28.452Z,101174.59
2022-11-01T19:42:58.892Z,101188.59
2022-11-01T19:45:34.273Z,101172.59
2022-11-01T19:48:04.801Z,100921.34
2022-11-01T19:50:39.456Z,101167.84
2022-11-01T19:53:17.929Z,101164.06
2022-11-01T19:55:51.119Z,101148.97
2022-11-01T19:58:25.910Z,101140.94
2022-11-01T20:01:32.683Z,101153.19
2022-11-01T20:04:02.499Z,101137.97
2022-11-01T20:06:35.386Z,101131.03
2022-11-01T20:09:06.821Z,101112.66
2022-11-01T20:11:35.109Z,101094.13
2022-11-01T20:14:03.598Z,101126.88
2022-11-01T20:16:31.984Z,101102.25
2022-11-01T20:19:00.529Z,101137.50
2022-11-01T20:21:28.886Z,101133.19
2022-11-01T20:23:59.529Z,101145.59
2022-11-01T20:26:27.932Z,101090.06
2022-11-01T20:28:56.150Z,101131.47
2022-11-01T20:31:25.097Z,101114.69
2022-11-01T20:33:53.414Z,100986.50
2022-11-01T20:36:22.291Z,101128.38
2022-11-01T20:38:50.618Z,101116.63
2022-11-01T20:41:20.196Z,101137.16
2022-11-01T20:43:48.871Z,101112.38
2022-11-01T20:46:17.411Z,101119.56
2022-11-01T20:48:46.270Z,100851.91
2022-11-01T20:51:14.696Z,101110.16
2022-11-01T20:53:42.874Z,101149.78
2022-11-01T20:56:11.015Z,101130.53
2022-11-01T20:58:40.916Z,101129.56
2022-11-01T21:01:16.093Z,101139.41
2022-11-01T21:03:44.532Z,101104.34
2022-11-01T21:06:14.454Z,101097.97
2022-11-01T21:08:45.002Z,101153.66
2022-11-01T21:11:16.371Z,101125.38
2022-11-01T21:13:46.856Z,101152.03
2022-11-01T21:16:21.353Z,101152.81
2022-11-01T21:18:52.349Z,101147.34
2022-11-01T21:21:42.472Z,101176.63
2022-11-01T21:24:31.735Z,101151.88
2022-11-01T21:27:23.067Z,101166.03
2022-11-01T21:29:53.315Z,101184.59
2022-11-01T21:32:27.200Z,101212.06
2022-11-01T21:34:55.414Z,101129.97
2022-11-01T21:37:23.961Z,101169.50
2022-11-01T21:39:58.944Z,101143.34
2022-11-01T21:42:32.844Z,101177.72
2022-11-01T21:45:16.884Z,101165.38
2022-11-01T21:47:45.852Z,101182.97
2022-11-01T21:50:14.199Z,101182.97
2022-11-01T21:52:42.381Z,101181.06
2022-11-01T21:55:10.650Z,101175.16
2022-11-01T21:57:39.012Z,101146.88
2022-11-01T22:00:10.628Z,101083.56
2022-11-01T22:02:38.923Z,101150.03
2022-11-01T22:05:07.871Z,101145.66
2022-11-01T22:07:36.023Z,101144.81
2022-11-01T22:10:04.792Z,101136.91
2022-11-01T22:12:33.235Z,101004.94
2022-11-01T22:15:01.374Z,101143.59
2022-11-01T22:17:31.489Z,101148.94
2022-11-01T22:19:59.736Z,101123.38
2022-11-01T22:22:27.945Z,101161.47
2022-11-01T22:24:56.271Z,101152.53
2022-11-01T22:27:24.410Z,101161.56
2022-11-01T22:29:52.542Z,101086.81
2022-11-01T22:32:20.871Z,101139.50
2022-11-01T22:34:50.483Z,101028.94
2022-11-01T22:37:18.757Z,101137.31
2022-11-01T22:39:52.896Z,101146.16
2022-11-01T22:42:22.088Z,101099.44
2022-11-01T22:44:50.608Z,101143.28
2022-11-01T22:47:23.779Z,101108.78
2022-11-01T22:49:54.647Z,101129.41
2022-11-01T22:52:30.419Z,101052.72
2022-11-01T22:55:02.878Z,101128.53
2022-11-01T22:57:35.094Z,101124.06
2022-11-01T23:00:27.189Z,101144.31
2022-11-01T23:03:00.369Z,101157.69
2022-11-01T23:05:30.083Z,101131.94
2022-11-01T23:07:59.451Z,101145.16
2022-11-01T23:10:30.242Z,101133.59
2022-11-01T23:13:22.314Z,101088.00
2022-11-01T23:15:52.392Z,101142.44
2022-11-01T23:18:22.619Z,101137.97
2022-11-01T23:20:55.688Z,101135.25
2022-11-01T23:23:25.111Z,101096.66
2022-11-01T23:25:54.624Z,101130.16
2022-11-01T23:28:23.051Z,101108.84
2022-11-01T23:30:51.767Z,101124.59
2022-11-01T23:33:21.630Z,101129.88
2022-11-01T23:35:53.634Z,101088.53
2022-11-01T23:38:23.711Z,101093.59
2022-11-01T23:40:53.986Z,101103.66
2022-11-01T23:43:24.352Z,101128.56
2022-11-01T23:45:53.397Z,101134.78
2022-11-01T23:48:22.992Z,101118.91
2022-11-01T23:50:54.031Z,101102.13
2022-11-01T23:53:26.412Z,101114.41
2022-11-01T23:55:55.565Z,101109.22
2022-11-01T23:58:27.026Z,101111.97
